sensor_id;sensor_type;location;lat;lon;timestamp;P1;durP1;ratioP1;P2;durP2;ratioP2
13014;SDS011;6573;57.696;11.950;2022-10-13T00:00:13;13.27;;;2.50;;
13014;SDS011;6573;57.696;11.950;2022-10-13T00:02:41;12.93;;;2.57;;
13014;SDS011;6573;57.696;11.950;2022-10-13T00:05:11;15.50;;;3.10;;
13014;SDS011;6573;57.696;11.950;2022-10-13T00:07:39;11.40;;;2.60;;
13014;SDS011;6573;57.696;11.950;2022-10-13T00:10:10;17.97;;;2.67;;
13014;SDS011;6573;57.696;11.950;2022-10-13T00:12:38;11.57;;;2.50;;
13014;SDS011;6573;57.696;11.950;2022-10-13T00:15:07;13.33;;;2.67;;
13014;SDS011;6573;57.696;11.950;2022-10-13T00:17:36;15.17;;;2.90;;
13014;SDS011;6573;57.696;11.950;2022-10-13T00:20:04;10.03;;;2.60;;
13014;SDS011;6573;57.696;11.950;2022-10-13T00:22:35;13.00;;;2.70;;
13014;SDS011;6573;57.696;11.950;2022-10-13T00:25:04;13.33;;;2.50;;
13014;SDS011;6573;57.696;11.950;2022-10-13T00:27:35;9.67;;;3.17;;
13014;SDS011;6573;57.696;11.950;2022-10-13T00:30:05;11.17;;;2.30;;
13014;SDS011;6573;57.696;11.950;2022-10-13T00:32:36;8.70;;;2.57;;
13014;SDS011;6573;57.696;11.950;2022-10-13T00:35:04;14.60;;;2.57;;
13014;SDS011;6573;57.696;11.950;2022-10-13T00:37:33;11.30;;;2.53;;
13014;SDS011;6573;57.696;11.950;2022-10-13T00:40:03;18.30;;;2.97;;
13014;SDS011;6573;57.696;11.950;2022-10-13T00:42:32;12.57;;;2.53;;
13014;SDS011;6573;57.696;11.950;2022-10-13T00:45:02;10.63;;;2.60;;
13014;SDS011;6573;57.696;11.950;2022-10-13T00:47:35;14.97;;;2.67;;
13014;SDS011;6573;57.696;11.950;2022-10-13T00:50:08;18.43;;;3.03;;
13014;SDS011;6573;57.696;11.950;2022-10-13T00:52:38;14.73;;;2.67;;
13014;SDS011;6573;57.696;11.950;2022-10-13T00:55:10;13.03;;;2.37;;
13014;SDS011;6573;57.696;11.950;2022-10-13T00:57:43;13.80;;;2.20;;
13014;SDS011;6573;57.696;11.950;2022-10-13T01:00:20;22.43;;;3.43;;
13014;SDS011;6573;57.696;11.950;2022-10-13T01:02:50;16.20;;;2.90;;
13014;SDS011;6573;57.696;11.950;2022-10-13T01:05:19;12.70;;;2.97;;
13014;SDS011;6573;57.696;11.950;2022-10-13T01:07:48;20.40;;;3.97;;
13014;SDS011;6573;57.696;11.950;2022-10-13T01:10:21;16.30;;;3.37;;
13014;SDS011;6573;57.696;11.950;2022-10-13T01:12:58;20.43;;;3.40;;
13014;SDS011;6573;57.696;11.950;2022-10-13T01:15:31;15.50;;;2.80;;
13014;SDS011;6573;57.696;11.950;2022-10-13T01:18:07;14.60;;;2.87;;
13014;SDS011;6573;57.696;11.950;2022-10-13T01:20:48;17.63;;;3.37;;
13014;SDS011;6573;57.696;11.950;2022-10-13T01:23:48;11.67;;;3.37;;
13014;SDS011;6573;57.696;11.950;2022-10-13T01:26:52;17.53;;;3.60;;
13014;SDS011;6573;57.696;11.950;2022-10-13T01:32:35;12.40;;;2.93;;
13014;SDS011;6573;57.696;11.950;2022-10-13T01:35:18;15.57;;;3.57;;
13014;SDS011;6573;57.696;11.950;2022-10-13T01:37:53;12.57;;;3.23;;
13014;SDS011;6573;57.696;11.950;2022-10-13T01:40:25;17.00;;;3.43;;
13014;SDS011;6573;57.696;11.950;2022-10-13T01:43:00;17.87;;;3.37;;
13014;SDS011;6573;57.696;11.950;2022-10-13T01:45:34;12.07;;;3.10;;
13014;SDS011;6573;57.696;11.950;2022-10-13T01:48:06;14.93;;;3.63;;
13014;SDS011;6573;57.696;11.950;2022-10-13T01:50:37;12.90;;;3.47;;
13014;SDS011;6573;57.696;11.950;2022-10-13T01:53:06;14.10;;;3.50;;
13014;SDS011;6573;57.696;11.950;2022-10-13T01:55:47;16.33;;;3.30;;
13014;SDS011;6573;57.696;11.950;2022-10-13T01:58:16;17.87;;;3.87;;
13014;SDS011;6573;57.696;11.950;2022-10-13T02:00:50;18.27;;;3.30;;
13014;SDS011;6573;57.696;11.950;2022-10-13T02:03:30;21.37;;;3.60;;
13014;SDS011;6573;57.696;11.950;2022-10-13T02:06:09;13.90;;;2.80;;
13014;SDS011;6573;57.696;11.950;2022-10-13T02:08:48;16.73;;;3.30;;
13014;SDS011;6573;57.696;11.950;2022-10-13T02:11:23;13.07;;;3.50;;
13014;SDS011;6573;57.696;11.950;2022-10-13T02:13:53;13.53;;;3.00;;
13014;SDS011;6573;57.696;11.950;2022-10-13T02:16:28;18.33;;;3.47;;
13014;SDS011;6573;57.696;11.950;2022-10-13T02:19:01;14.57;;;3.60;;
13014;SDS011;6573;57.696;11.950;2022-10-13T02:21:32;14.27;;;3.07;;
13014;SDS011;6573;57.696;11.950;2022-10-13T02:24:01;19.53;;;3.20;;
13014;SDS011;6573;57.696;11.950;2022-10-13T02:26:30;16.37;;;3.10;;
13014;SDS011;6573;57.696;11.950;2022-10-13T02:29:05;16.93;;;3.13;;
13014;SDS011;6573;57.696;11.950;2022-10-13T02:31:37;14.23;;;3.03;;
13014;SDS011;6573;57.696;11.950;2022-10-13T02:34:09;14.10;;;2.93;;
13014;SDS011;6573;57.696;11.950;2022-10-13T02:36:38;16.70;;;3.00;;
13014;SDS011;6573;57.696;11.950;2022-10-13T02:39:07;14.37;;;3.10;;
13014;SDS011;6573;57.696;11.950;2022-10-13T02:41:36;12.23;;;2.90;;
13014;SDS011;6573;57.696;11.950;2022-10-13T02:44:06;16.43;;;3.10;;
13014;SDS011;6573;57.696;11.950;2022-10-13T02:46:35;16.10;;;2.67;;
13014;SDS011;6573;57.696;11.950;2022-10-13T02:49:05;16.63;;;3.13;;
13014;SDS011;6573;57.696;11.950;2022-10-13T02:51:33;12.73;;;3.20;;
13014;SDS011;6573;57.696;11.950;2022-10-13T02:54:05;14.27;;;2.97;;
13014;SDS011;6573;57.696;11.950;2022-10-13T02:56:37;14.97;;;3.17;;
13014;SDS011;6573;57.696;11.950;2022-10-13T02:59:06;12.10;;;3.30;;
13014;SDS011;6573;57.696;11.950;2022-10-13T03:01:34;15.27;;;2.90;;
13014;SDS011;6573;57.696;11.950;2022-10-13T03:04:08;14.37;;;3.17;;
13014;SDS011;6573;57.696;11.950;2022-10-13T03:06:36;12.93;;;2.77;;
13014;SDS011;6573;57.696;11.950;2022-10-13T03:09:05;11.63;;;3.07;;
13014;SDS011;6573;57.696;11.950;2022-10-13T03:11:34;17.13;;;2.73;;
13014;SDS011;6573;57.696;11.950;2022-10-13T03:14:02;15.13;;;2.70;;
13014;SDS011;6573;57.696;11.950;2022-10-13T03:16:31;13.30;;;2.80;;
13014;SDS011;6573;57.696;11.950;2022-10-13T03:18:59;16.30;;;3.40;;
13014;SDS011;6573;57.696;11.950;2022-10-13T03:21:29;12.20;;;2.67;;
13014;SDS011;6573;57.696;11.950;2022-10-13T03:23:57;21.73;;;3.17;;
13014;SDS011;6573;57.696;11.950;2022-10-13T03:26:26;10.70;;;2.80;;
13014;SDS011;6573;57.696;11.950;2022-10-13T03:28:54;16.17;;;3.03;;
13014;SDS011;6573;57.696;11.950;2022-10-13T03:31:22;16.00;;;3.33;;
13014;SDS011;6573;57.696;11.950;2022-10-13T03:33:50;13.73;;;3.53;;
13014;SDS011;6573;57.696;11.950;2022-10-13T03:36:19;13.70;;;2.60;;
13014;SDS011;6573;57.696;11.950;2022-10-13T03:38:48;14.70;;;3.73;;
13014;SDS011;6573;57.696;11.950;2022-10-13T03:41:17;11.73;;;2.90;;
13014;SDS011;6573;57.696;11.950;2022-10-13T03:43:46;13.53;;;3.00;;
13014;SDS011;6573;57.696;11.950;2022-10-13T03:46:15;16.90;;;2.80;;
13014;SDS011;6573;57.696;11.950;2022-10-13T03:48:44;19.03;;;3.67;;
13014;SDS011;6573;57.696;11.950;2022-10-13T03:51:15;15.90;;;2.90;;
13014;SDS011;6573;57.696;11.950;2022-10-13T03:53:45;12.10;;;2.73;;
13014;SDS011;6573;57.696;11.950;2022-10-13T03:56:16;14.40;;;3.20;;
13014;SDS011;6573;57.696;11.950;2022-10-13T03:58:46;14.17;;;3.17;;
13014;SDS011;6573;57.696;11.950;2022-10-13T04:01:19;11.03;;;2.63;;
13014;SDS011;6573;57.696;11.950;2022-10-13T04:03:47;14.57;;;3.03;;
13014;SDS011;6573;57.696;11.950;2022-10-13T04:06:16;14.67;;;3.20;;
13014;SDS011;6573;57.696;11.950;2022-10-13T04:08:45;11.90;;;2.50;;
13014;SDS011;6573;57.696;11.950;2022-10-13T04:11:14;18.73;;;3.03;;
13014;SDS011;6573;57.696;11.950;2022-10-13T04:13:44;13.70;;;2.73;;
13014;SDS011;6573;57.696;11.950;2022-10-13T04:16:13;11.63;;;2.70;;
13014;SDS011;6573;57.696;11.950;2022-10-13T04:18:43;17.13;;;2.90;;
13014;SDS011;6573;57.696;11.950;2022-10-13T04:21:12;12.83;;;2.70;;
13014;SDS011;6573;57.696;11.950;2022-10-13T04:23:41;12.30;;;2.50;;
13014;SDS011;6573;57.696;11.950;2022-10-13T04:26:13;13.20;;;2.70;;
13014;SDS011;6573;57.696;11.950;2022-10-13T04:28:45;24.83;;;3.10;;
13014;SDS011;6573;57.696;11.950;2022-10-13T04:31:14;12.27;;;2.50;;
13014;SDS011;6573;57.696;11.950;2022-10-13T04:33:43;11.03;;;2.60;;
13014;SDS011;6573;57.696;11.950;2022-10-13T04:36:12;10.57;;;2.80;;
13014;SDS011;6573;57.696;11.950;2022-10-13T04:38:42;14.43;;;3.27;;
13014;SDS011;6573;57.696;11.950;2022-10-13T04:41:10;14.80;;;2.97;;
13014;SDS011;6573;57.696;11.950;2022-10-13T04:43:41;15.70;;;2.70;;
13014;SDS011;6573;57.696;11.950;2022-10-13T04:46:12;9.43;;;2.43;;
13014;SDS011;6573;57.696;11.950;2022-10-13T04:48:42;14.57;;;2.57;;
13014;SDS011;6573;57.696;11.950;2022-10-13T04:51:11;22.97;;;3.00;;
13014;SDS011;6573;57.696;11.950;2022-10-13T04:53:40;16.33;;;3.23;;
13014;SDS011;6573;57.696;11.950;2022-10-13T04:56:09;14.90;;;2.90;;
13014;SDS011;6573;57.696;11.950;2022-10-13T04:58:40;18.77;;;2.90;;
13014;SDS011;6573;57.696;11.950;2022-10-13T05:01:16;13.93;;;2.93;;
13014;SDS011;6573;57.696;11.950;2022-10-13T05:03:49;16.13;;;2.93;;
13014;SDS011;6573;57.696;11.950;2022-10-13T05:06:19;16.03;;;3.27;;
13014;SDS011;6573;57.696;11.950;2022-10-13T05:08:49;18.50;;;4.17;;
13014;SDS011;6573;57.696;11.950;2022-10-13T05:11:17;11.50;;;2.83;;
13014;SDS011;6573;57.696;11.950;2022-10-13T05:13:47;16.60;;;2.90;;
13014;SDS011;6573;57.696;11.950;2022-10-13T05:16:16;15.27;;;2.80;;
13014;SDS011;6573;57.696;11.950;2022-10-13T05:18:46;13.13;;;2.70;;
13014;SDS011;6573;57.696;11.950;2022-10-13T05:21:16;22.17;;;3.03;;
13014;SDS011;6573;57.696;11.950;2022-10-13T05:23:45;15.23;;;3.00;;
13014;SDS011;6573;57.696;11.950;2022-10-13T05:26:14;12.43;;;2.73;;
13014;SDS011;6573;57.696;11.950;2022-10-13T05:28:44;12.50;;;2.67;;
13014;SDS011;6573;57.696;11.950;2022-10-13T05:31:14;16.87;;;3.17;;
13014;SDS011;6573;57.696;11.950;2022-10-13T05:33:44;15.60;;;3.40;;
13014;SDS011;6573;57.696;11.950;2022-10-13T05:36:14;18.37;;;3.57;;
13014;SDS011;6573;57.696;11.950;2022-10-13T05:38:43;18.83;;;3.13;;
13014;SDS011;6573;57.696;11.950;2022-10-13T05:41:13;19.30;;;3.13;;
13014;SDS011;6573;57.696;11.950;2022-10-13T05:43:41;12.10;;;2.90;;
13014;SDS011;6573;57.696;11.950;2022-10-13T05:46:09;17.70;;;3.13;;
13014;SDS011;6573;57.696;11.950;2022-10-13T05:48:42;13.37;;;3.33;;
13014;SDS011;6573;57.696;11.950;2022-10-13T05:51:11;16.03;;;3.20;;
13014;SDS011;6573;57.696;11.950;2022-10-13T05:53:44;17.20;;;3.37;;
13014;SDS011;6573;57.696;11.950;2022-10-13T05:56:24;17.43;;;3.43;;
13014;SDS011;6573;57.696;11.950;2022-10-13T05:58:58;13.73;;;2.97;;
13014;SDS011;6573;57.696;11.950;2022-10-13T06:01:30;10.43;;;2.90;;
13014;SDS011;6573;57.696;11.950;2022-10-13T06:04:03;13.73;;;2.80;;
13014;SDS011;6573;57.696;11.950;2022-10-13T06:06:35;18.10;;;4.53;;
13014;SDS011;6573;57.696;11.950;2022-10-13T06:09:03;22.20;;;5.07;;
13014;SDS011;6573;57.696;11.950;2022-10-13T06:11:31;21.37;;;3.60;;
13014;SDS011;6573;57.696;11.950;2022-10-13T06:14:00;17.70;;;3.17;;
13014;SDS011;6573;57.696;11.950;2022-10-13T06:16:29;15.43;;;3.37;;
13014;SDS011;6573;57.696;11.950;2022-10-13T06:18:57;11.20;;;3.23;;
13014;SDS011;6573;57.696;11.950;2022-10-13T06:21:26;16.33;;;4.27;;
13014;SDS011;6573;57.696;11.950;2022-10-13T06:23:56;19.60;;;3.50;;
13014;SDS011;6573;57.696;11.950;2022-10-13T06:26:24;17.33;;;4.23;;
13014;SDS011;6573;57.696;11.950;2022-10-13T06:28:52;11.83;;;3.13;;
13014;SDS011;6573;57.696;11.950;2022-10-13T06:31:25;15.27;;;3.63;;
13014;SDS011;6573;57.696;11.950;2022-10-13T06:33:53;15.27;;;3.40;;
13014;SDS011;6573;57.696;11.950;2022-10-13T06:36:22;19.80;;;3.70;;
13014;SDS011;6573;57.696;11.950;2022-10-13T06:38:52;21.33;;;3.70;;
13014;SDS011;6573;57.696;11.950;2022-10-13T06:41:20;12.23;;;2.97;;
13014;SDS011;6573;57.696;11.950;2022-10-13T06:43:48;19.53;;;3.33;;
13014;SDS011;6573;57.696;11.950;2022-10-13T06:46:17;20.07;;;3.20;;
13014;SDS011;6573;57.696;11.950;2022-10-13T06:48:47;17.47;;;3.23;;
13014;SDS011;6573;57.696;11.950;2022-10-13T06:51:16;15.90;;;2.93;;
13014;SDS011;6573;57.696;11.950;2022-10-13T06:53:44;14.30;;;2.93;;
13014;SDS011;6573;57.696;11.950;2022-10-13T06:56:14;10.37;;;2.93;;
13014;SDS011;6573;57.696;11.950;2022-10-13T06:58:43;15.30;;;3.63;;
13014;SDS011;6573;57.696;11.950;2022-10-13T07:01:11;12.37;;;3.10;;
13014;SDS011;6573;57.696;11.950;2022-10-13T07:03:40;18.10;;;3.20;;
13014;SDS011;6573;57.696;11.950;2022-10-13T07:06:16;12.87;;;3.13;;
13014;SDS011;6573;57.696;11.950;2022-10-13T07:08:47;13.10;;;2.90;;
13014;SDS011;6573;57.696;11.950;2022-10-13T07:11:16;14.30;;;2.97;;
13014;SDS011;6573;57.696;11.950;2022-10-13T07:13:45;14.90;;;3.10;;
13014;SDS011;6573;57.696;11.950;2022-10-13T07:16:13;11.03;;;2.60;;
13014;SDS011;6573;57.696;11.950;2022-10-13T07:18:42;13.87;;;2.90;;
13014;SDS011;6573;57.696;11.950;2022-10-13T07:21:10;13.83;;;2.77;;
13014;SDS011;6573;57.696;11.950;2022-10-13T07:23:38;12.77;;;2.70;;
13014;SDS011;6573;57.696;11.950;2022-10-13T07:26:07;15.13;;;2.93;;
13014;SDS011;6573;57.696;11.950;2022-10-13T07:28:38;12.57;;;3.07;;
13014;SDS011;6573;57.696;11.950;2022-10-13T07:31:07;13.83;;;2.80;;
13014;SDS011;6573;57.696;11.950;2022-10-13T07:33:39;21.93;;;3.70;;
13014;SDS011;6573;57.696;11.950;2022-10-13T07:36:08;17.97;;;3.40;;
13014;SDS011;6573;57.696;11.950;2022-10-13T07:38:37;14.03;;;2.60;;
13014;SDS011;6573;57.696;11.950;2022-10-13T07:41:06;17.87;;;3.83;;
13014;SDS011;6573;57.696;11.950;2022-10-13T07:43:36;11.23;;;2.93;;
13014;SDS011;6573;57.696;11.950;2022-10-13T07:46:06;12.90;;;2.70;;
13014;SDS011;6573;57.696;11.950;2022-10-13T07:48:35;18.33;;;3.03;;
13014;SDS011;6573;57.696;11.950;2022-10-13T07:51:04;17.03;;;4.57;;
13014;SDS011;6573;57.696;11.950;2022-10-13T07:53:34;11.97;;;3.23;;
13014;SDS011;6573;57.696;11.950;2022-10-13T07:56:02;14.07;;;3.17;;
13014;SDS011;6573;57.696;11.950;2022-10-13T07:58:35;10.40;;;2.83;;
13014;SDS011;6573;57.696;11.950;2022-10-13T08:01:06;10.47;;;2.90;;
13014;SDS011;6573;57.696;11.950;2022-10-13T08:03:35;12.63;;;3.03;;
13014;SDS011;6573;57.696;11.950;2022-10-13T08:06:06;9.13;;;2.47;;
13014;SDS011;6573;57.696;11.950;2022-10-13T08:08:36;17.33;;;2.80;;
13014;SDS011;6573;57.696;11.950;2022-10-13T08:11:06;15.03;;;3.03;;
13014;SDS011;6573;57.696;11.950;2022-10-13T08:13:41;14.83;;;2.80;;
13014;SDS011;6573;57.696;11.950;2022-10-13T08:16:11;11.67;;;3.03;;
13014;SDS011;6573;57.696;11.950;2022-10-13T08:18:39;14.87;;;3.00;;
13014;SDS011;6573;57.696;11.950;2022-10-13T08:21:07;12.60;;;2.50;;
13014;SDS011;6573;57.696;11.950;2022-10-13T08:23:59;14.07;;;2.70;;
13014;SDS011;6573;57.696;11.950;2022-10-13T08:26:28;15.83;;;2.90;;
13014;SDS011;6573;57.696;11.950;2022-10-13T08:28:56;12.30;;;2.30;;
13014;SDS011;6573;57.696;11.950;2022-10-13T08:31:46;10.80;;;2.63;;
13014;SDS011;6573;57.696;11.950;2022-10-13T08:34:19;12.27;;;2.23;;
13014;SDS011;6573;57.696;11.950;2022-10-13T08:36:51;12.13;;;2.53;;
13014;SDS011;6573;57.696;11.950;2022-10-13T08:39:22;11.73;;;2.90;;
13014;SDS011;6573;57.696;11.950;2022-10-13T08:41:51;12.83;;;2.50;;
13014;SDS011;6573;57.696;11.950;2022-10-13T08:44:24;9.63;;;2.30;;
13014;SDS011;6573;57.696;11.950;2022-10-13T08:50:10;14.17;;;2.50;;
13014;SDS011;6573;57.696;11.950;2022-10-13T08:52:45;11.03;;;3.13;;
13014;SDS011;6573;57.696;11.950;2022-10-13T08:55:23;13.03;;;2.40;;
13014;SDS011;6573;57.696;11.950;2022-10-13T08:57:55;12.23;;;2.77;;
13014;SDS011;6573;57.696;11.950;2022-10-13T09:00:23;20.03;;;3.03;;
13014;SDS011;6573;57.696;11.950;2022-10-13T09:02:53;14.97;;;3.07;;
13014;SDS011;6573;57.696;11.950;2022-10-13T09:05:31;11.20;;;2.37;;
13014;SDS011;6573;57.696;11.950;2022-10-13T09:08:05;12.83;;;2.63;;
13014;SDS011;6573;57.696;11.950;2022-10-13T09:10:46;13.37;;;2.70;;
13014;SDS011;6573;57.696;11.950;2022-10-13T09:13:15;16.57;;;3.20;;
13014;SDS011;6573;57.696;11.950;2022-10-13T09:15:45;15.30;;;2.57;;
13014;SDS011;6573;57.696;11.950;2022-10-13T09:18:17;8.00;;;2.53;;
13014;SDS011;6573;57.696;11.950;2022-10-13T09:20:45;10.27;;;2.30;;
13014;SDS011;6573;57.696;11.950;2022-10-13T09:23:16;13.90;;;2.53;;
13014;SDS011;6573;57.696;11.950;2022-10-13T09:25:47;12.03;;;2.40;;
13014;SDS011;6573;57.696;11.950;2022-10-13T09:28:18;13.70;;;2.30;;
13014;SDS011;6573;57.696;11.950;2022-10-13T09:30:48;15.50;;;3.13;;
13014;SDS011;6573;57.696;11.950;2022-10-13T09:33:30;12.93;;;2.37;;
13014;SDS011;6573;57.696;11.950;2022-10-13T09:36:06;11.03;;;2.50;;
13014;SDS011;6573;57.696;11.950;2022-10-13T09:38:38;8.87;;;2.40;;
13014;SDS011;6573;57.696;11.950;2022-10-13T09:41:12;10.50;;;2.57;;
13014;SDS011;6573;57.696;11.950;2022-10-13T09:43:56;7.33;;;2.10;;
13014;SDS011;6573;57.696;11.950;2022-10-13T09:46:27;14.27;;;3.03;;
13014;SDS011;6573;57.696;11.950;2022-10-13T09:49:03;10.93;;;2.60;;
13014;SDS011;6573;57.696;11.950;2022-10-13T09:51:34;9.70;;;2.40;;
13014;SDS011;6573;57.696;11.950;2022-10-13T09:54:05;12.97;;;2.73;;
13014;SDS011;6573;57.696;11.950;2022-10-13T09:56:52;10.33;;;2.20;;
13014;SDS011;6573;57.696;11.950;2022-10-13T09:59:27;13.27;;;2.50;;
13014;SDS011;6573;57.696;11.950;2022-10-13T10:02:06;7.57;;;2.40;;
13014;SDS011;6573;57.696;11.950;2022-10-13T10:04:57;10.53;;;2.63;;
13014;SDS011;6573;57.696;11.950;2022-10-13T10:07:32;15.67;;;2.90;;
13014;SDS011;6573;57.696;11.950;2022-10-13T10:10:02;13.77;;;2.70;;
13014;SDS011;6573;57.696;11.950;2022-10-13T10:12:40;15.83;;;3.20;;
13014;SDS011;6573;57.696;11.950;2022-10-13T10:15:15;11.30;;;2.83;;
13014;SDS011;6573;57.696;11.950;2022-10-13T10:17:59;15.53;;;3.20;;
13014;SDS011;6573;57.696;11.950;2022-10-13T10:23:28;12.43;;;2.97;;
13014;SDS011;6573;57.696;11.950;2022-10-13T10:26:11;10.93;;;3.10;;
13014;SDS011;6573;57.696;11.950;2022-10-13T10:28:51;16.83;;;3.83;;
13014;SDS011;6573;57.696;11.950;2022-10-13T10:31:31;11.13;;;2.63;;
13014;SDS011;6573;57.696;11.950;2022-10-13T10:34:15;10.43;;;2.50;;
13014;SDS011;6573;57.696;11.950;2022-10-13T10:37:02;13.67;;;3.20;;
13014;SDS011;6573;57.696;11.950;2022-10-13T10:39:40;11.23;;;3.00;;
13014;SDS011;6573;57.696;11.950;2022-10-13T10:42:40;16.57;;;3.13;;
13014;SDS011;6573;57.696;11.950;2022-10-13T10:45:26;10.97;;;2.90;;
13014;SDS011;6573;57.696;11.950;2022-10-13T10:48:02;12.07;;;2.47;;
13014;SDS011;6573;57.696;11.950;2022-10-13T10:50:38;15.23;;;3.10;;
13014;SDS011;6573;57.696;11.950;2022-10-13T10:53:12;17.37;;;3.93;;
13014;SDS011;6573;57.696;11.950;2022-10-13T10:55:49;9.97;;;2.93;;
13014;SDS011;6573;57.696;11.950;2022-10-13T10:58:23;18.07;;;3.10;;
13014;SDS011;6573;57.696;11.950;2022-10-13T11:01:04;10.83;;;3.10;;
13014;SDS011;6573;57.696;11.950;2022-10-13T11:03:41;8.10;;;2.50;;
13014;SDS011;6573;57.696;11.950;2022-10-13T11:06:21;8.27;;;2.83;;
13014;SDS011;6573;57.696;11.950;2022-10-13T11:08:53;12.80;;;2.77;;
13014;SDS011;6573;57.696;11.950;2022-10-13T11:17:16;11.73;;;2.90;;
13014;SDS011;6573;57.696;11.950;2022-10-13T11:19:46;14.00;;;3.00;;
13014;SDS011;6573;57.696;11.950;2022-10-13T11:22:16;10.27;;;2.20;;
13014;SDS011;6573;57.696;11.950;2022-10-13T11:24:48;14.60;;;3.20;;
13014;SDS011;6573;57.696;11.950;2022-10-13T11:27:26;12.70;;;2.77;;
13014;SDS011;6573;57.696;11.950;2022-10-13T11:30:04;13.67;;;2.87;;
13014;SDS011;6573;57.696;11.950;2022-10-13T11:32:56;7.87;;;2.80;;
13014;SDS011;6573;57.696;11.950;2022-10-13T11:35:25;10.40;;;2.70;;
13014;SDS011;6573;57.696;11.950;2022-10-13T11:38:18;10.23;;;3.10;;
13014;SDS011;6573;57.696;11.950;2022-10-13T11:41:09;10.33;;;3.63;;
13014;SDS011;6573;57.696;11.950;2022-10-13T11:43:45;10.07;;;2.93;;
13014;SDS011;6573;57.696;11.950;2022-10-13T11:46:25;12.63;;;3.30;;
13014;SDS011;6573;57.696;11.950;2022-10-13T11:49:15;14.90;;;3.03;;
13014;SDS011;6573;57.696;11.950;2022-10-13T11:55:12;12.00;;;3.10;;
13014;SDS011;6573;57.696;11.950;2022-10-13T11:57:46;16.23;;;3.80;;
13014;SDS011;6573;57.696;11.950;2022-10-13T12:00:15;14.93;;;3.47;;
13014;SDS011;6573;57.696;11.950;2022-10-13T12:02:48;12.00;;;3.47;;
13014;SDS011;6573;57.696;11.950;2022-10-13T12:05:20;14.33;;;3.60;;
13014;SDS011;6573;57.696;11.950;2022-10-13T12:07:50;16.77;;;3.90;;
13014;SDS011;6573;57.696;11.950;2022-10-13T12:10:22;8.63;;;3.10;;
13014;SDS011;6573;57.696;11.950;2022-10-13T12:12:57;11.70;;;3.50;;
13014;SDS011;6573;57.696;11.950;2022-10-13T12:15:29;18.07;;;3.43;;
13014;SDS011;6573;57.696;11.950;2022-10-13T12:17:59;21.27;;;3.97;;
13014;SDS011;6573;57.696;11.950;2022-10-13T12:20:28;15.63;;;3.90;;
13014;SDS011;6573;57.696;11.950;2022-10-13T12:22:58;11.63;;;3.73;;
13014;SDS011;6573;57.696;11.950;2022-10-13T12:25:27;10.23;;;3.47;;
13014;SDS011;6573;57.696;11.950;2022-10-13T12:27:58;15.47;;;3.97;;
13014;SDS011;6573;57.696;11.950;2022-10-13T12:30:28;14.40;;;3.73;;
13014;SDS011;6573;57.696;11.950;2022-10-13T12:33:01;18.67;;;3.50;;
13014;SDS011;6573;57.696;11.950;2022-10-13T12:35:32;10.20;;;3.13;;
13014;SDS011;6573;57.696;11.950;2022-10-13T12:38:02;12.13;;;3.67;;
13014;SDS011;6573;57.696;11.950;2022-10-13T12:40:33;12.50;;;3.60;;
13014;SDS011;6573;57.696;11.950;2022-10-13T12:43:03;9.90;;;3.40;;
13014;SDS011;6573;57.696;11.950;2022-10-13T12:45:32;14.60;;;3.73;;
13014;SDS011;6573;57.696;11.950;2022-10-13T12:48:01;15.83;;;4.20;;
13014;SDS011;6573;57.696;11.950;2022-10-13T12:50:31;15.67;;;3.77;;
13014;SDS011;6573;57.696;11.950;2022-10-13T12:53:08;13.10;;;3.60;;
13014;SDS011;6573;57.696;11.950;2022-10-13T12:55:47;16.50;;;3.50;;
13014;SDS011;6573;57.696;11.950;2022-10-13T12:58:29;12.97;;;3.60;;
13014;SDS011;6573;57.696;11.950;2022-10-13T13:01:16;17.80;;;3.80;;
13014;SDS011;6573;57.696;11.950;2022-10-13T13:03:53;10.63;;;4.07;;
13014;SDS011;6573;57.696;11.950;2022-10-13T13:06:30;12.70;;;4.27;;
13014;SDS011;6573;57.696;11.950;2022-10-13T13:12:03;14.93;;;4.00;;
13014;SDS011;6573;57.696;11.950;2022-10-13T13:14:49;13.33;;;4.40;;
13014;SDS011;6573;57.696;11.950;2022-10-13T13:17:23;13.87;;;3.90;;
13014;SDS011;6573;57.696;11.950;2022-10-13T13:20:17;15.50;;;4.00;;
13014;SDS011;6573;57.696;11.950;2022-10-13T13:22:47;11.67;;;4.03;;
13014;SDS011;6573;57.696;11.950;2022-10-13T13:25:16;16.10;;;3.77;;
13014;SDS011;6573;57.696;11.950;2022-10-13T13:27:44;12.73;;;4.17;;
13014;SDS011;6573;57.696;11.950;2022-10-13T13:30:16;11.60;;;3.77;;
13014;SDS011;6573;57.696;11.950;2022-10-13T13:32:45;11.80;;;3.73;;
13014;SDS011;6573;57.696;11.950;2022-10-13T13:35:15;13.17;;;3.73;;
13014;SDS011;6573;57.696;11.950;2022-10-13T13:37:44;15.27;;;3.47;;
13014;SDS011;6573;57.696;11.950;2022-10-13T13:40:16;14.60;;;3.93;;
13014;SDS011;6573;57.696;11.950;2022-10-13T13:42:46;11.47;;;3.73;;
13014;SDS011;6573;57.696;11.950;2022-10-13T13:45:16;17.20;;;5.07;;
13014;SDS011;6573;57.696;11.950;2022-10-13T13:47:46;9.53;;;3.87;;
13014;SDS011;6573;57.696;11.950;2022-10-13T13:50:15;10.80;;;3.60;;
13014;SDS011;6573;57.696;11.950;2022-10-13T13:52:47;10.33;;;3.60;;
13014;SDS011;6573;57.696;11.950;2022-10-13T13:55:16;16.70;;;4.40;;
13014;SDS011;6573;57.696;11.950;2022-10-13T13:57:44;15.70;;;3.93;;
13014;SDS011;6573;57.696;11.950;2022-10-13T14:00:13;17.53;;;4.00;;
13014;SDS011;6573;57.696;11.950;2022-10-13T14:02:46;15.63;;;3.70;;
13014;SDS011;6573;57.696;11.950;2022-10-13T14:05:15;17.00;;;4.33;;
13014;SDS011;6573;57.696;11.950;2022-10-13T14:07:44;12.53;;;3.80;;
13014;SDS011;6573;57.696;11.950;2022-10-13T14:10:12;10.47;;;3.80;;
13014;SDS011;6573;57.696;11.950;2022-10-13T14:12:41;11.37;;;3.87;;
13014;SDS011;6573;57.696;11.950;2022-10-13T14:15:09;12.73;;;4.03;;
13014;SDS011;6573;57.696;11.950;2022-10-13T14:17:39;11.87;;;3.87;;
13014;SDS011;6573;57.696;11.950;2022-10-13T14:20:11;12.43;;;4.10;;
13014;SDS011;6573;57.696;11.950;2022-10-13T14:22:40;15.13;;;3.93;;
13014;SDS011;6573;57.696;11.950;2022-10-13T14:25:08;14.93;;;3.87;;
13014;SDS011;6573;57.696;11.950;2022-10-13T14:27:37;15.83;;;4.40;;
13014;SDS011;6573;57.696;11.950;2022-10-13T14:30:06;8.47;;;3.93;;
13014;SDS011;6573;57.696;11.950;2022-10-13T14:32:36;16.60;;;4.30;;
13014;SDS011;6573;57.696;11.950;2022-10-13T14:35:07;16.10;;;4.23;;
13014;SDS011;6573;57.696;11.950;2022-10-13T14:37:35;15.07;;;4.23;;
13014;SDS011;6573;57.696;11.950;2022-10-13T14:40:05;9.33;;;3.47;;
13014;SDS011;6573;57.696;11.950;2022-10-13T14:42:34;10.30;;;3.50;;
13014;SDS011;6573;57.696;11.950;2022-10-13T14:45:02;12.97;;;3.87;;
13014;SDS011;6573;57.696;11.950;2022-10-13T14:47:32;13.23;;;3.93;;
13014;SDS011;6573;57.696;11.950;2022-10-13T14:50:00;14.40;;;4.20;;
13014;SDS011;6573;57.696;11.950;2022-10-13T14:52:30;20.07;;;4.07;;
13014;SDS011;6573;57.696;11.950;2022-10-13T14:54:58;13.03;;;4.10;;
13014;SDS011;6573;57.696;11.950;2022-10-13T14:57:27;13.40;;;3.70;;
13014;SDS011;6573;57.696;11.950;2022-10-13T14:59:55;18.20;;;3.70;;
13014;SDS011;6573;57.696;11.950;2022-10-13T15:02:27;20.33;;;4.30;;
13014;SDS011;6573;57.696;11.950;2022-10-13T15:04:56;10.33;;;3.70;;
13014;SDS011;6573;57.696;11.950;2022-10-13T15:07:25;13.27;;;4.07;;
13014;SDS011;6573;57.696;11.950;2022-10-13T15:09:54;15.13;;;4.77;;
13014;SDS011;6573;57.696;11.950;2022-10-13T15:12:31;14.50;;;4.00;;
13014;SDS011;6573;57.696;11.950;2022-10-13T15:14:59;12.90;;;3.60;;
13014;SDS011;6573;57.696;11.950;2022-10-13T15:17:28;14.67;;;3.63;;
13014;SDS011;6573;57.696;11.950;2022-10-13T15:19:58;10.57;;;3.50;;
13014;SDS011;6573;57.696;11.950;2022-10-13T15:22:27;13.57;;;3.73;;
13014;SDS011;6573;57.696;11.950;2022-10-13T15:24:57;10.43;;;3.40;;